Time;durP1;ratioP1;P1;durP2;ratioP2;P2;SDS_P1;SDS_P2;PMS_P1;PMS_P2;Temp;Humidity;BMP_temperature;BMP_pressure;BME280_temperature;BME280_humidity;BME280_pressure;Samples;Min_cycle;Max_cycle;Signal;HPM_P1;HPM_P2
2022/08/01 00:00:20;;;;;;;13.32;6.55;;;;;;;17.04;100.00;101828.78;5117784;27;20027;-81
2022/08/01 00:02:45;;;;;;;10.57;5.53;;;;;;;17.03;100.00;101821.72;5115553;28;20035;-82
2022/08/01 00:05:11;;;;;;;14.85;5.78;;;;;;;17.02;100.00;101826.25;5115309;28;20102;-82
2022/08/01 00:07:36;;;;;;;14.85;5.80;;;;;;;17.03;100.00;101827.97;5115549;28;20034;-81
2022/08/01 00:10:08;;;;;;;13.18;5.10;;;;;;;17.04;100.00;101836.84;5115294;28;20039;-81
2022/08/01 00:12:34;;;;;;;9.35;4.85;;;;;;;17.04;100.00;101836.84;5115027;28;20034;-81
2022/08/01 00:14:59;;;;;;;10.20;5.00;;;;;;;17.04;100.00;101831.47;5115017;28;20063;-81
2022/08/01 00:17:25;;;;;;;8.20;4.10;;;;;;;17.02;100.00;101836.19;5115785;28;20461;-82
2022/08/01 00:19:50;;;;;;;8.07;4.55;;;;;;;17.01;100.00;101831.81;5116227;28;20031;-81
2022/08/01 00:22:16;;;;;;;9.80;3.95;;;;;;;16.99;100.00;101840.03;5115594;28;20039;-81
2022/08/01 00:24:41;;;;;;;5.10;3.05;;;;;;;16.96;100.00;101834.97;5116200;28;20038;-82
2022/08/01 00:27:07;;;;;;;8.88;3.05;;;;;;;16.92;100.00;101834.41;5123408;28;20011;-82
2022/08/01 00:29:32;;;;;;;5.22;2.53;;;;;;;16.88;100.00;101837.56;5134688;28;20031;-81
2022/08/01 00:31:57;;;;;;;5.22;2.30;;;;;;;16.84;100.00;101834.34;5126567;27;20024;-81
2022/08/01 00:34:23;;;;;;;4.38;2.30;;;;;;;16.80;100.00;101840.19;5120835;28;20108;-81
2022/08/01 00:36:48;;;;;;;3.00;2.17;;;;;;;16.73;100.00;101827.38;5125804;28;20027;-81
2022/08/01 00:39:13;;;;;;;4.43;2.33;;;;;;;16.72;100.00;101827.53;5114462;28;20044;-81
2022/08/01 00:41:39;;;;;;;4.00;2.28;;;;;;;16.70;100.00;101826.81;5114672;28;20110;-82
2022/08/01 00:44:05;;;;;;;2.60;2.10;;;;;;;16.69;100.00;101833.19;5114827;28;20031;-82
2022/08/01 00:46:31;;;;;;;5.10;2.65;;;;;;;16.68;100.00;101831.50;5114584;28;20035;-82
2022/08/01 00:48:57;;;;;;;3.20;2.00;;;;;;;16.68;100.00;101832.34;5114504;28;20487;-82
2022/08/01 00:51:23;;;;;;;4.30;2.50;;;;;;;16.67;100.00;101837.88;5113292;28;20481;-83
2022/08/01 00:53:50;;;;;;;2.88;2.25;;;;;;;16.67;100.00;101835.19;5114337;28;20051;-83
2022/08/01 00:56:16;;;;;;;5.53;2.70;;;;;;;16.64;100.00;101833.66;5114857;28;20028;-83
2022/08/01 00:58:42;;;;;;;7.30;2.92;;;;;;;16.64;100.00;101835.50;5114496;28;20143;-83
2022/08/01 01:01:07;;;;;;;5.00;2.50;;;;;;;16.63;100.00;101837.34;5113903;28;20031;-83
2022/08/01 01:03:33;;;;;;;3.80;2.50;;;;;;;16.62;100.00;101832.97;5114326;27;20028;-83
2022/08/01 01:06:14;;;;;;;3.88;2.33;;;;;;;16.61;100.00;101831.28;5113953;28;20027;-83
2022/08/01 01:08:49;;;;;;;6.57;2.40;;;;;;;16.57;100.00;101833.44;5114342;28;20085;-83
2022/08/01 01:11:45;;;;;;;4.50;2.40;;;;;;;16.55;100.00;101832.72;5114721;28;20055;-82
2022/08/01 01:14:23;;;;;;;2.95;2.20;;;;;;;16.52;100.00;101819.63;5114490;28;20023;-83
2022/08/01 01:16:49;;;;;;;4.70;2.40;;;;;;;16.49;100.00;101821.78;5116467;28;20047;-83
2022/08/01 01:19:24;;;;;;;2.60;2.25;;;;;;;16.44;100.00;101824.94;5117242;28;20035;-82
2022/08/01 01:22:17;;;;;;;3.65;2.42;;;;;;;16.39;100.00;101824.53;5116036;28;20024;-81
2022/08/01 01:25:20;;;;;;;4.28;2.88;;;;;;;16.37;100.00;101824.69;5114995;28;20031;-82
2022/08/01 01:28:13;;;;;;;6.45;3.10;;;;;;;16.35;100.00;101820.47;5106311;28;20039;-82
2022/08/01 01:30:42;;;;;;;4.32;3.17;;;;;;;16.33;100.00;101828.69;5114175;28;20059;-81
2022/08/01 01:33:11;;;;;;;5.90;3.33;;;;;;;16.33;100.00;101836.75;5114509;28;20034;-82
2022/08/01 01:35:41;;;;;;;3.95;2.95;;;;;;;16.33;100.00;101834.06;5113963;28;20483;-81
2022/08/01 01:38:26;;;;;;;7.17;3.17;;;;;;;16.35;100.00;101831.22;5113956;28;20024;-81
2022/08/01 01:40:54;;;;;;;4.65;3.20;;;;;;;16.35;100.00;101829.38;5114022;28;20107;-82
2022/08/01 01:43:22;;;;;;;7.30;3.05;;;;;;;16.35;100.00;101832.06;5114065;28;20023;-81
2022/08/01 01:45:49;;;;;;;5.57;3.75;;;;;;;16.34;100.00;101829.53;5096841;28;20098;-82
2022/08/01 01:48:17;;;;;;;7.05;3.20;;;;;;;16.35;100.00;101840.13;5114883;28;20058;-82
2022/08/01 01:50:46;;;;;;;7.38;4.05;;;;;;;16.34;100.00;101835.72;5114161;28;20028;-82
2022/08/01 01:53:15;;;;;;;8.38;4.47;;;;;;;16.34;100.00;101842.94;5125280;28;20031;-81
2022/08/01 01:55:43;;;;;;;6.00;4.03;;;;;;;16.33;100.00;101833.19;5116715;28;20034;-83
2022/08/01 01:58:12;;;;;;;9.32;4.68;;;;;;;16.34;100.00;101832.22;5114377;28;20043;-82
2022/08/01 02:00:40;;;;;;;10.68;4.20;;;;;;;16.34;100.00;101838.41;5114143;28;20067;-82
2022/08/01 02:03:08;;;;;;;9.85;4.38;;;;;;;16.33;100.00;101838.56;5113573;28;20020;-82
2022/08/01 02:05:36;;;;;;;10.48;4.40;;;;;;;16.34;100.00;101837.59;5113757;28;20059;-81
2022/08/01 02:08:04;;;;;;;12.48;4.65;;;;;;;16.34;100.00;101840.28;5113599;28;20028;-81
2022/08/01 02:10:31;;;;;;;7.32;4.22;;;;;;;16.32;100.00;101842.28;5113081;28;20111;-81
2022/08/01 02:12:59;;;;;;;9.05;4.45;;;;;;;16.33;100.00;101839.44;5112380;28;20031;-82
2022/08/01 02:15:27;;;;;;;8.55;4.22;;;;;;;16.32;100.00;101839.59;5113488;28;20070;-82
2022/08/01 02:17:56;;;;;;;7.35;3.58;;;;;;;16.32;100.00;101842.28;5113397;28;20035;-82
2022/08/01 02:20:22;;;;;;;6.93;3.50;;;;;;;16.30;100.00;101841.56;5113408;28;20032;-82
2022/08/01 02:22:57;;;;;;;6.72;3.20;;;;;;;16.30;100.00;101837.06;5113181;28;20038;-82
2022/08/01 02:25:32;;;;;;;7.13;3.30;;;;;;;16.31;100.00;101843.25;5113557;28;20030;-82
2022/08/01 02:28:10;;;;;;;8.63;2.80;;;;;;;16.30;100.00;101838.88;5114322;28;20077;-82
2022/08/01 02:30:38;;;;;;;4.10;2.63;;;;;;;16.28;100.00;101838.19;5113378;28;20031;-80
2022/08/01 02:33:17;;;;;;;4.63;2.67;;;;;;;16.28;100.00;101840.88;5113321;28;20032;-82
2022/08/01 02:35:46;;;;;;;4.57;2.80;;;;;;;16.26;100.00;101841.03;5114741;28;20111;-82
2022/08/01 02:38:14;;;;;;;3.70;2.40;;;;;;;16.26;100.00;101846.41;5117106;28;20107;-81
2022/08/01 02:40:43;;;;;;;3.47;2.30;;;;;;;16.25;100.00;101846.56;5117074;28;20024;-82
2022/08/01 02:43:11;;;;;;;2.78;2.30;;;;;;;16.26;100.00;101854.47;5116823;27;20024;-82
2022/08/01 02:45:42;;;;;;;5.82;2.00;;;;;;;16.25;100.00;101855.44;5116841;28;20020;-81
2022/08/01 02:48:13;;;;;;;5.07;2.35;;;;;;;16.25;100.00;101841.19;5117443;28;20031;-82
2022/08/01 02:50:42;;;;;;;3.28;2.10;;;;;;;16.24;100.00;101843.00;5116462;27;20027;-82
2022/08/01 02:53:10;;;;;;;4.82;2.05;;;;;;;16.25;100.00;101841.19;5117408;27;20080;-82
2022/08/01 02:55:37;;;;;;;3.85;2.22;;;;;;;16.22;100.00;101843.16;5116682;28;20101;-82
2022/08/01 02:58:04;;;;;;;5.25;2.25;;;;;;;16.22;100.00;101847.69;5116511;28;20066;-82
2022/08/01 03:00:31;;;;;;;5.63;2.20;;;;;;;16.22;100.00;101848.53;5117128;28;20023;-82
2022/08/01 03:02:58;;;;;;;4.40;2.22;;;;;;;16.24;100.00;101850.22;5117025;28;20080;-81
2022/08/01 03:05:25;;;;;;;7.90;2.92;;;;;;;16.25;100.00;101841.19;5117290;28;20032;-81
2022/08/01 03:07:52;;;;;;;6.43;2.47;;;;;;;16.26;100.00;101851.78;5116999;28;20032;-81
2022/08/01 03:10:18;;;;;;;3.72;2.10;;;;;;;16.27;100.00;101861.53;5115213;28;20598;-82
2022/08/01 03:12:46;;;;;;;5.00;2.30;;;;;;;16.28;100.00;101854.31;5116366;28;20035;-82
2022/08/01 03:15:13;;;;;;;3.53;2.20;;;;;;;16.27;100.00;101856.16;5115951;28;20044;-82
2022/08/01 03:17:42;;;;;;;4.63;2.25;;;;;;;16.27;100.00;101855.28;5116370;27;20023;-82
2022/08/01 03:20:12;;;;;;;2.70;2.30;;;;;;;16.28;100.00;101851.63;5116824;28;20100;-82
2022/08/01 03:22:39;;;;;;;6.03;2.20;;;;;;;16.29;100.00;101853.31;5115495;28;20030;-82
2022/08/01 03:25:06;;;;;;;3.15;2.00;;;;;;;16.31;100.00;101852.16;5116187;28;20043;-82
2022/08/01 03:27:32;;;;;;;7.53;2.30;;;;;;;16.32;100.00;101855.69;5115460;28;20023;-82
2022/08/01 03:30:02;;;;;;;6.55;2.50;;;;;;;16.31;100.00;101844.09;5116324;28;20427;-82
2022/08/01 03:32:29;;;;;;;6.97;2.10;;;;;;;16.31;100.00;101852.16;5116600;28;20059;-81
2022/08/01 03:34:55;;;;;;;5.15;3.05;;;;;;;16.32;100.00;101855.69;5116011;28;20485;-82
2022/08/01 03:37:25;;;;;;;5.63;2.40;;;;;;;16.32;100.00;101851.16;5114436;28;20101;-82
2022/08/01 03:39:58;;;;;;;3.55;2.35;;;;;;;16.33;100.00;101850.19;5115716;28;20088;-81
2022/08/01 03:42:31;;;;;;;6.68;2.30;;;;;;;16.34;100.00;101856.38;5116133;28;20034;-82
2022/08/01 03:45:02;;;;;;;3.72;2.10;;;;;;;16.32;100.00;101851.16;5116039;27;20032;-82
2022/08/01 03:47:34;;;;;;;5.63;2.40;;;;;;;16.28;100.00;101851.63;5119281;28;20024;-82
2022/08/01 03:50:03;;;;;;;5.68;2.20;;;;;;;16.25;100.00;101844.72;5126748;28;20457;-82
2022/08/01 03:52:31;;;;;;;4.05;2.20;;;;;;;16.23;100.00;101849.41;5116031;28;20027;-83
2022/08/01 03:54:59;;;;;;;4.25;2.40;;;;;;;16.20;100.00;101837.13;5115784;28;20035;-82
2022/08/01 03:57:28;;;;;;;4.13;2.30;;;;;;;16.16;100.00;101838.41;5116177;28;20036;-82
2022/08/01 03:59:55;;;;;;;6.30;2.50;;;;;;;16.16;100.00;101848.31;5115497;28;20024;-82
2022/08/01 04:02:22;;;;;;;5.00;2.45;;;;;;;16.16;100.00;101851.81;5114339;28;20142;-81
2022/08/01 04:04:48;;;;;;;4.10;2.60;;;;;;;16.19;100.00;101850.69;5115280;28;20023;-81
2022/08/01 04:07:26;;;;;;;5.55;2.20;;;;;;;16.20;100.00;101852.38;5114099;28;20307;-82
2022/08/01 04:09:52;;;;;;;6.40;2.30;;;;;;;16.21;100.00;101846.00;5115109;28;20028;-82
2022/08/01 04:12:18;;;;;;;3.92;2.33;;;;;;;16.22;100.00;101853.91;5115991;28;20089;-82
2022/08/01 04:14:44;;;;;;;5.70;2.38;;;;;;;16.21;100.00;101852.22;5115648;28;20035;-81
2022/08/01 04:17:09;;;;;;;8.32;2.40;;;;;;;16.18;100.00;101854.34;5115096;28;20477;-81
2022/08/01 04:19:34;;;;;;;3.92;2.30;;;;;;;16.13;100.00;101860.19;5114832;28;20092;-82
2022/08/01 04:22:00;;;;;;;5.07;2.38;;;;;;;16.10;100.00;101852.44;5115295;28;20047;-82
2022/08/01 04:24:29;;;;;;;3.13;2.08;;;;;;;16.13;100.00;101859.34;5113558;28;20396;-81
2022/08/01 04:26:58;;;;;;;4.20;2.20;;;;;;;16.17;100.00;101860.75;5114457;28;20380;-81
2022/08/01 04:29:25;;;;;;;4.50;2.22;;;;;;;16.21;100.00;101860.28;5114981;28;20024;-81
2022/08/01 04:31:54;;;;;;;3.10;2.20;;;;;;;16.25;100.00;101863.50;5114527;28;20028;-81
2022/08/01 04:34:22;;;;;;;4.53;2.40;;;;;;;16.31;100.00;101862.06;5114393;28;20034;-82
2022/08/01 04:36:49;;;;;;;3.25;2.00;;;;;;;16.36;100.00;101859.75;5114763;28;20023;-82
2022/08/01 04:39:17;;;;;;;3.03;2.40;;;;;;;16.39;100.00;101867.50;5114701;28;20074;-81
2022/08/01 04:41:46;;;;;;;4.00;2.30;;;;;;;16.43;100.00;101874.25;5114573;28;20110;-82
2022/08/01 04:44:13;;;;;;;2.70;2.13;;;;;;;16.48;100.00;101863.91;5114501;28;20457;-83
2022/08/01 04:46:39;;;;;;;3.60;2.20;;;;;;;16.53;100.00;101874.19;5114526;28;20062;-83
2022/08/01 04:49:08;;;;;;;4.45;2.42;;;;;;;16.56;100.00;101876.59;5114307;28;20450;-82
2022/08/01 04:51:34;;;;;;;4.47;2.40;;;;;;;16.54;100.00;101876.72;5114614;28;20027;-82
2022/08/01 04:54:00;;;;;;;3.60;2.03;;;;;;;16.55;100.00;101875.72;5112943;28;20035;-83
2022/08/01 04:56:26;;;;;;;5.03;2.30;;;;;;;16.60;100.00;101879.78;5113936;28;20111;-82
2022/08/01 04:59:39;;;;;;;3.22;2.15;;;;;;;16.60;100.00;101877.97;5112927;28;20181;-82
2022/08/01 05:01:37;;;;;;;4.10;2.55;;;;;;;16.60;100.00;101877.09;5113902;28;20040;-82
2022/08/01 05:04:02;;;;;;;3.95;2.20;;;;;;;16.57;100.00;101880.97;5113909;28;20039;-83
2022/08/01 05:06:27;;;;;;;1.98;1.80;;;;;;;16.57;100.00;101873.75;5114161;28;20491;-83
2022/08/01 05:08:53;;;;;;;2.97;1.85;;;;;;;16.55;100.00;101874.88;5114211;28;20411;-84
2022/08/01 05:11:18;;;;;;;2.40;2.10;;;;;;;16.55;100.00;101878.41;5114585;28;20039;-83
2022/08/01 05:13:43;;;;;;;5.90;2.22;;;;;;;16.57;100.00;101879.13;5114605;28;20031;-82
2022/08/01 05:16:09;;;;;;;4.68;2.20;;;;;;;16.58;100.00;101879.94;5114403;28;20048;-80
2022/08/01 05:18:34;;;;;;;6.47;3.08;;;;;;;16.53;100.00;101882.25;5114424;28;20114;-80
2022/08/01 05:21:00;;;;;;;4.75;2.58;;;;;;;16.46;100.00;101875.81;5114258;28;20046;-80
2022/08/01 05:23:25;;;;;;;8.68;2.50;;;;;;;16.39;100.00;101878.25;5114047;28;20098;-81
2022/08/01 05:25:51;;;;;;;3.63;2.38;;;;;;;16.35;100.00;101885.78;5113759;28;20537;-80
2022/08/01 05:28:16;;;;;;;3.38;2.30;;;;;;;16.30;100.00;101877.34;5114147;28;20508;-80
2022/08/01 05:30:42;;;;;;;4.07;2.60;;;;;;;16.28;100.00;101884.69;5113554;28;20031;-80
2022/08/01 05:33:07;;;;;;;3.88;2.53;;;;;;;16.30;100.00;101887.22;5113827;28;20036;-80
2022/08/01 05:35:32;;;;;;;6.10;3.03;;;;;;;16.34;100.00;101893.97;5113794;28;20453;-79
2022/08/01 05:37:58;;;;;;;6.43;3.38;;;;;;;16.36;100.00;101892.84;5114132;28;20106;-80
2022/08/01 05:40:23;;;;;;;3.15;2.70;;;;;;;16.40;100.00;101890.69;5114154;28;20034;-81
2022/08/01 05:42:48;;;;;;;5.45;2.88;;;;;;;16.44;100.00;101893.94;5114187;28;20027;-81
2022/08/01 05:45:14;;;;;;;3.00;2.70;;;;;;;16.47;100.00;101902.50;5118003;28;20652;-81
2022/08/01 05:47:39;;;;;;;6.72;2.80;;;;;;;16.46;100.00;101905.34;5114200;28;20137;-81
2022/08/01 05:50:05;;;;;;;4.82;2.75;;;;;;;16.45;100.00;101906.34;5113781;28;20036;-81
2022/08/01 05:52:30;;;;;;;4.07;2.70;;;;;;;16.42;100.00;101907.50;5113685;28;20031;-81
2022/08/01 05:54:56;;;;;;;4.88;2.85;;;;;;;16.43;100.00;101911.88;5112323;28;20381;-81
2022/08/01 05:57:21;;;;;;;5.85;3.30;;;;;;;16.43;100.00;101913.72;5095679;28;20485;-80
2022/08/01 05:59:46;;;;;;;4.50;3.13;;;;;;;16.40;100.00;101915.69;5113603;28;20362;-81
2022/08/01 06:02:12;;;;;;;5.15;3.13;;;;;;;16.37;100.00;101920.53;5112091;28;20374;-81
2022/08/01 06:04:37;;;;;;;4.60;2.75;;;;;;;16.38;100.00;101922.22;5114031;28;20128;-81
2022/08/01 06:07:03;;;;;;;3.92;2.70;;;;;;;16.35;100.00;101918.00;5113514;28;20070;-81
2022/08/01 06:09:30;;;;;;;5.05;3.00;;;;;;;16.31;100.00;101913.09;5113819;28;20055;-82
2022/08/01 06:11:55;;;;;;;4.15;2.92;;;;;;;16.29;100.00;101920.47;5116806;28;20521;-82
2022/08/01 06:14:21;;;;;;;4.45;2.92;;;;;;;16.34;100.00;101929.72;5117450;28;20118;-81
2022/08/01 06:16:46;;;;;;;6.45;3.28;;;;;;;16.39;100.00;101927.44;5117933;28;20388;-81
2022/08/01 06:19:11;;;;;;;3.63;3.08;;;;;;;16.46;100.00;101926.84;5117236;28;20028;-81
2022/08/01 06:21:37;;;;;;;4.97;3.13;;;;;;;16.48;100.00;101922.16;5117557;28;20030;-81
2022/08/01 06:24:02;;;;;;;4.43;3.20;;;;;;;16.52;100.00;101932.44;5118057;28;20114;-82
2022/08/01 06:26:28;;;;;;;5.53;3.28;;;;;;;16.59;100.00;101930.00;5117657;28;20035;-81
2022/08/01 06:28:53;;;;;;;7.78;4.10;;;;;;;16.68;100.00;101936.31;5117181;28;20020;-81
2022/08/01 06:31:18;;;;;;;6.03;3.72;;;;;;;16.82;100.00;101940.28;5117436;28;20473;-82
2022/08/01 06:33:44;;;;;;;8.27;4.05;;;;;;;16.90;100.00;101943.94;5117731;28;20520;-81
2022/08/01 06:36:09;;;;;;;7.75;4.70;;;;;;;17.12;100.00;101951.69;5118704;28;20381;-81
2022/08/01 06:38:35;;;;;;;8.52;4.70;;;;;;;17.29;100.00;101940.06;5118617;28;20123;-81
2022/08/01 06:41:00;;;;;;;11.02;5.13;;;;;;;17.37;100.00;101941.97;5118957;28;20122;-81
2022/08/01 06:43:25;;;;;;;10.25;4.60;;;;;;;17.44;100.00;101940.34;5118057;28;20032;-81
2022/08/01 06:45:51;;;;;;;13.13;5.72;;;;;;;17.54;100.00;101945.59;5117279;28;20042;-81
2022/08/01 06:48:16;;;;;;;12.65;5.85;;;;;;;17.64;100.00;101946.34;5116590;28;20088;-81
2022/08/01 06:50:42;;;;;;;14.15;6.18;;;;;;;17.74;100.00;101940.88;5116970;28;20516;-81
2022/08/01 06:53:07;;;;;;;12.98;6.22;;;;;;;17.87;100.00;101943.09;5116056;28;20027;-83
2022/08/01 06:55:32;;;;;;;16.20;5.50;;;;;;;18.00;100.00;101945.41;5116170;28;20044;-81
2022/08/01 06:57:58;;;;;;;12.57;5.50;;;;;;;18.10;100.00;101946.94;5116909;28;20035;-81
2022/08/01 07:00:25;;;;;;;12.23;5.28;;;;;;;18.18;100.00;101945.31;5117067;27;20027;-81
2022/08/01 07:02:52;;;;;;;14.68;5.30;;;;;;;18.24;100.00;101953.59;5116724;28;20031;-81
2022/08/01 07:05:18;;;;;;;14.73;5.10;;;;;;;18.28;100.00;101948.72;5116721;28;20059;-81
2022/08/01 07:07:43;;;;;;;16.58;5.82;;;;;;;18.35;100.00;101954.28;5116222;28;20034;-79
2022/08/01 07:10:09;;;;;;;17.45;5.32;;;;;;;18.35;100.00;101963.22;5116837;28;20043;-80
2022/08/01 07:12:37;;;;;;;12.30;4.82;;;;;;;18.38;100.00;101956.66;5117029;28;20085;-79
2022/08/01 07:15:04;;;;;;;13.23;4.80;;;;;;;18.44;100.00;101964.09;5115077;28;20020;-82
2022/08/01 07:17:30;;;;;;;16.08;3.97;;;;;;;18.44;100.00;101964.09;5116754;28;20047;-83
2022/08/01 07:19:55;;;;;;;18.10;4.75;;;;;;;18.43;100.00;101967.78;5115188;28;20457;-80
2022/08/01 07:22:21;;;;;;;13.20;4.18;;;;;;;18.33;100.00;101968.78;5115572;28;20112;-79
2022/08/01 07:24:46;;;;;;;15.95;3.85;;;;;;;18.32;100.00;101963.53;5117796;28;20031;-83
2022/08/01 07:27:12;;;;;;;12.50;3.78;;;;;;;18.30;100.00;101966.41;5119677;28;20032;-82
2022/08/01 07:29:37;;;;;;;14.00;4.13;;;;;;;18.31;100.00;101972.63;5117122;28;20024;-83
2022/08/01 07:32:03;;;;;;;8.10;3.63;;;;;;;18.31;100.00;101976.16;5117145;28;20381;-83
2022/08/01 07:34:28;;;;;;;11.32;3.80;;;;;;;18.32;100.00;101979.72;5121837;28;20051;-83
2022/08/01 07:36:53;;;;;;;8.13;3.15;;;;;;;18.27;100.00;101973.94;5133548;28;20024;-84
2022/08/01 07:39:19;;;;;;;8.30;3.10;;;;;;;18.26;100.00;101978.50;5130500;28;20035;-82
2022/08/01 07:41:44;;;;;;;8.73;2.88;;;;;;;18.21;100.00;101982.69;5122071;28;20027;-82
2022/08/01 07:44:10;;;;;;;13.52;3.92;;;;;;;18.24;100.00;101980.53;5116898;28;20228;-83
2022/08/01 07:46:35;;;;;;;13.05;3.80;;;;;;;18.40;100.00;101986.97;5116381;28;20038;-81
2022/08/01 07:49:00;;;;;;;13.50;3.28;;;;;;;18.55;100.00;101981.81;5117034;28;20035;-81
2022/08/01 07:51:26;;;;;;;12.90;3.10;;;;;;;18.74;100.00;101989.59;5116870;28;20434;-86
2022/08/01 07:53:51;;;;;;;14.50;3.25;;;;;;;18.94;100.00;101981.22;5116697;28;20035;-82
2022/08/01 07:56:17;;;;;;;11.40;3.15;;;;;;;19.09;100.00;101987.63;5116298;28;20038;-81
2022/08/01 07:58:42;;;;;;;11.63;2.80;;;;;;;19.28;100.00;101982.94;5115558;28;20385;-81
2022/08/01 08:01:07;;;;;;;11.20;2.80;;;;;;;19.49;100.00;101985.94;5115857;28;20039;-83
2022/08/01 08:03:33;;;;;;;9.30;3.00;;;;;;;19.63;100.00;101988.97;5115705;28;20027;-87
2022/08/01 08:05:58;;;;;;;11.27;2.58;;;;;;;19.73;99.67;101987.78;5115565;28;20475;-82
2022/08/01 08:08:24;;;;;;;10.07;2.85;;;;;;;19.83;99.69;101984.91;5115120;28;20027;-91
2022/08/01 08:10:49;;;;;;;8.52;2.60;;;;;;;19.92;98.01;101988.44;5115638;28;20069;-84
2022/08/01 08:13:15;;;;;;;7.75;2.30;;;;;;;20.02;97.08;101999.03;5115422;28;20168;-85
2022/08/01 08:15:40;;;;;;;8.07;2.20;;;;;;;20.05;96.57;102001.41;5115425;28;20055;-85
2022/08/01 08:18:06;;;;;;;9.40;2.60;;;;;;;20.28;100.00;101997.94;5115528;28;20118;-79
2022/08/01 08:20:31;;;;;;;8.43;2.33;;;;;;;20.44;98.86;101992.47;5115294;28;20034;-86
2022/08/01 08:22:58;;;;;;;8.48;2.10;;;;;;;20.57;94.23;101994.59;5115464;28;20053;-83
2022/08/01 08:25:24;;;;;;;11.35;2.70;;;;;;;20.65;93.75;101997.25;5115172;28;20084;-82
2022/08/01 08:27:50;;;;;;;7.50;2.08;;;;;;;20.66;92.00;101998.97;5115098;28;20531;-81
2022/08/01 08:30:15;;;;;;;8.38;2.60;;;;;;;20.82;93.05;102008.00;5114651;28;20044;-82
2022/08/01 08:32:41;;;;;;;9.75;2.63;;;;;;;20.96;91.40;102012.66;5115249;28;20035;-81
2022/08/01 08:35:08;;;;;;;6.82;2.40;;;;;;;21.07;87.47;102008.69;5113276;28;20371;-80
2022/08/01 08:37:37;;;;;;;14.65;2.60;;;;;;;20.99;88.81;102004.19;5114548;28;20205;-80
2022/08/01 08:40:04;;;;;;;11.02;2.45;;;;;;;20.84;88.35;102006.81;5115237;28;20338;-78
2022/08/01 08:42:30;;;;;;;7.95;2.33;;;;;;;20.71;86.29;102006.56;5114522;28;20028;-81
2022/08/01 08:44:55;;;;;;;7.90;2.15;;;;;;;20.55;86.55;102013.69;5115291;28;20119;-81
2022/08/01 08:47:23;;;;;;;10.02;2.13;;;;;;;20.36;87.12;102020.38;5112824;28;20059;-77
2022/08/01 08:49:52;;;;;;;7.53;1.95;;;;;;;20.30;86.91;102028.34;5114405;28;20028;-80
2022/08/01 08:52:20;;;;;;;7.28;1.88;;;;;;;20.33;86.88;102023.44;5113937;28;20481;-78
2022/08/01 08:54:47;;;;;;;6.47;2.08;;;;;;;20.52;86.80;102015.91;5114437;28;20093;-78
2022/08/01 08:57:14;;;;;;;9.52;2.17;;;;;;;20.67;86.54;102013.34;5114464;28;20032;-81
2022/08/01 08:59:40;;;;;;;9.93;2.20;;;;;;;20.79;85.11;102020.00;5114935;28;20027;-89
2022/08/01 09:02:09;;;;;;;7.75;2.00;;;;;;;20.85;82.67;102019.28;5114835;28;20057;-79
2022/08/01 09:04:35;;;;;;;10.32;3.15;;;;;;;20.91;84.77;102020.44;5114135;28;20484;-80
2022/08/01 09:07:03;;;;;;;8.50;1.98;;;;;;;21.06;83.41;102020.53;5114601;28;20115;-84
2022/08/01 09:09:28;;;;;;;9.63;2.60;;;;;;;21.21;80.37;102017.88;5114552;28;20024;-84
2022/08/01 09:11:54;;;;;;;10.25;2.42;;;;;;;21.30;79.29;102022.19;5114446;28;20035;-81
2022/08/01 09:14:32;;;;;;;11.93;2.10;;;;;;;21.29;76.66;102025.94;5114370;28;20132;-81
2022/08/01 09:17:02;;;;;;;10.20;2.00;;;;;;;21.68;75.38;102030.38;5114885;28;20048;-81
2022/08/01 09:19:35;;;;;;;5.70;1.75;;;;;;;22.14;73.06;102030.22;5114089;28;20057;-84
2022/08/01 09:22:03;;;;;;;7.18;2.35;;;;;;;22.14;72.91;102022.09;5114423;28;20032;-84
2022/08/01 09:24:30;;;;;;;7.50;2.20;;;;;;;22.62;72.20;102031.69;5114237;28;20024;-82
2022/08/01 09:26:56;;;;;;;10.38;2.00;;;;;;;23.28;67.42;102031.56;5113404;28;20058;-82
2022/08/01 09:29:28;;;;;;;7.70;1.83;;;;;;;23.32;67.48;102034.72;5112641;28;20431;-80
2022/08/01 09:31:53;;;;;;;8.30;2.05;;;;;;;23.15;68.61;102042.31;5125002;28;20087;-83
2022/08/01 09:34:32;;;;;;;9.07;2.10;;;;;;;22.97;69.17;102045.44;5119794;28;20047;-82
2022/08/01 09:37:00;;;;;;;11.95;2.20;;;;;;;23.59;64.60;102038.53;5114671;28;20454;-81
2022/08/01 09:39:27;;;;;;;5.05;1.80;;;;;;;24.11;66.73;102039.97;5113968;28;20051;-81
2022/08/01 09:41:55;;;;;;;8.30;2.05;;;;;;;24.09;65.53;102043.91;5114301;28;20028;-81
2022/08/01 09:44:37;;;;;;;6.78;2.28;;;;;;;23.80;66.62;102051.22;5115068;28;20034;-83
2022/08/01 09:47:02;;;;;;;6.22;1.95;;;;;;;23.46;68.47;102039.25;5118549;28;20039;-82
2022/08/01 09:49:36;;;;;;;10.35;2.70;;;;;;;23.81;68.91;102038.47;5118180;28;20397;-80
2022/08/01 09:52:16;;;;;;;13.00;2.53;;;;;;;24.81;58.89;102041.72;5118350;28;20031;-81
2022/08/01 09:54:50;;;;;;;14.48;3.00;;;;;;;25.39;57.00;102043.13;5118057;28;20103;-80
2022/08/01 09:57:18;;;;;;;12.05;2.67;;;;;;;24.76;58.78;102046.97;5118126;28;20028;-83
2022/08/01 09:59:46;;;;;;;14.73;2.85;;;;;;;24.16;58.99;102044.78;5117891;28;20092;-83
2022/08/01 10:02:15;;;;;;;9.68;2.63;;;;;;;24.09;60.78;102046.63;5117928;28;20030;-84
2022/08/01 10:04:51;;;;;;;10.45;2.40;;;;;;;24.99;60.28;102044.72;5116580;28;20114;-85
2022/08/01 10:07:17;;;;;;;13.73;2.42;;;;;;;25.80;56.08;102042.06;5118006;28;20031;-85
2022/08/01 10:09:44;;;;;;;11.98;2.42;;;;;;;26.10;57.19;102042.44;5116954;28;20090;-86
2022/08/01 10:12:11;;;;;;;9.10;2.45;;;;;;;25.86;53.87;102043.94;5118476;28;20453;-86
2022/08/01 10:14:38;;;;;;;9.60;2.42;;;;;;;25.79;54.88;102049.38;5118288;28;20032;-86
2022/08/01 10:17:07;;;;;;;11.80;2.72;;;;;;;25.22;57.66;102042.69;5119038;28;20047;-87
2022/08/01 10:19:34;;;;;;;11.63;2.28;;;;;;;24.68;56.06;102037.09;5118028;28;20034;-82
2022/08/01 10:22:00;;;;;;;7.80;2.35;;;;;;;24.22;54.37;102037.72;5116897;28;20076;-83
2022/08/01 10:24:28;;;;;;;7.70;2.20;;;;;;;24.71;56.78;102041.31;5117789;28;20039;-80
2022/08/01 10:27:03;;;;;;;5.38;2.10;;;;;;;25.12;53.65;102037.63;5117285;28;20051;-79
2022/08/01 10:29:34;;;;;;;5.75;1.98;;;;;;;25.39;55.50;102043.13;5117444;28;20054;-79
2022/08/01 10:31:59;;;;;;;5.22;1.80;;;;;;;25.78;53.86;102045.00;5117425;28;20028;-79
2022/08/01 10:34:27;;;;;;;5.93;2.00;;;;;;;25.75;48.65;102045.44;5116348;28;20418;-79
2022/08/01 10:36:53;;;;;;;6.40;2.22;;;;;;;25.68;49.68;102048.16;5115706;28;20031;-79
2022/08/01 10:39:19;;;;;;;7.78;2.10;;;;;;;25.41;53.06;102050.06;5116595;28;20027;-79
2022/08/01 10:41:45;;;;;;;6.55;2.08;;;;;;;25.07;51.76;102048.31;5115575;28;20118;-79
2022/08/01 10:44:10;;;;;;;7.65;2.22;;;;;;;24.83;54.86;102047.84;5116867;28;20031;-79
2022/08/01 10:46:52;;;;;;;7.43;1.67;;;;;;;24.98;51.92;102044.94;5116452;28;20402;-79
2022/08/01 10:49:21;;;;;;;12.35;2.45;;;;;;;25.35;54.49;102048.16;5117148;28;20031;-79
2022/08/01 10:51:47;;;;;;;8.88;2.20;;;;;;;26.21;51.38;102047.25;5116650;28;20096;-79
2022/08/01 10:54:13;;;;;;;10.43;3.00;;;;;;;26.97;52.35;102046.72;5116695;28;20099;-78
2022/08/01 10:56:39;;;;;;;8.05;2.40;;;;;;;27.56;47.03;102055.56;5116478;28;20027;-79
2022/08/01 10:59:05;;;;;;;11.50;2.45;;;;;;;27.96;45.21;102055.16;5116490;27;20023;-79
2022/08/01 11:01:34;;;;;;;16.35;2.92;;;;;;;27.50;48.64;102076.41;5115038;28;20465;-79
2022/08/01 11:03:59;;;;;;;10.52;2.42;;;;;;;26.56;50.76;102063.28;5116446;28;20032;-78
2022/08/01 11:06:33;;;;;;;9.68;2.17;;;;;;;25.41;51.01;102069.13;5116346;28;20043;-78
2022/08/01 11:09:05;;;;;;;12.88;2.90;;;;;;;24.76;54.11;102072.28;5116365;28;20525;-79
2022/08/01 11:11:31;;;;;;;9.38;2.50;;;;;;;24.47;56.66;102067.97;5115951;28;20023;-80
2022/08/01 11:14:00;;;;;;;10.43;2.80;;;;;;;24.91;55.06;102065.84;5116351;28;20028;-79
2022/08/01 11:16:28;;;;;;;11.20;2.72;;;;;;;24.91;55.88;102068.56;5116262;28;20507;-78
2022/08/01 11:18:53;;;;;;;15.57;2.78;;;;;;;25.32;56.54;102060.31;5116525;28;20031;-79